Time;durP1;ratioP1;P1;durP2;ratioP2;P2;SDS_P1;SDS_P2;PMS_P1;PMS_P2;Temp;Humidity;BMP_temperature;BMP_pressure;BME280_temperature;BME280_humidity;BME280_pressure;Samples;Min_cycle;Max_cycle;Signal;HPM_P1;HPM_P2
2021/12/23 00:01:58;;;;;;;0.00;0.00;;;0.60;90.60;;;;;;4148109;28;20045;-73
2021/12/23 00:04:21;;;;;;;0.00;0.00;;;0.60;90.70;;;;;;4163357;28;20046;-73
2021/12/23 00:06:46;;;;;;;0.00;0.00;;;0.70;90.80;;;;;;4162129;28;20136;-73
2021/12/23 00:09:08;;;;;;;0.00;0.00;;;0.80;90.70;;;;;;4162247;28;20128;-73
2021/12/23 00:11:32;;;;;;;0.00;0.00;;;0.80;90.50;;;;;;4161845;28;20056;-73
2021/12/23 00:14:06;;;;;;;0.00;0.00;;;0.60;90.50;;;;;;4178179;28;20040;-74
2021/12/23 00:16:47;;;;;;;0.00;0.00;;;0.60;90.60;;;;;;4178497;28;20045;-73
2021/12/23 00:24:23;;;;;;;0.00;0.00;;;0.60;90.80;;;;;;4192093;28;20122;-73
2021/12/23 00:26:45;;;;;;;0.00;0.00;;;0.60;90.60;;;;;;4170280;28;20079;-74
2021/12/23 00:29:08;;;;;;;0.00;0.00;;;0.70;90.40;;;;;;4162066;28;20041;-73
2021/12/23 00:31:31;;;;;;;0.00;0.00;;;0.70;90.30;;;;;;4161713;28;20478;-73
2021/12/23 00:33:54;;;;;;;0.00;0.00;;;0.50;90.40;;;;;;4176984;28;20049;-74
2021/12/23 00:36:17;;;;;;;0.00;0.00;;;0.20;90.70;;;;;;4162000;28;20561;-74
2021/12/23 00:38:50;;;;;;;0.00;0.00;;;0.20;91.00;;;;;;4161645;28;20046;-73
2021/12/23 00:41:13;;;;;;;0.00;0.00;;;0.10;91.00;;;;;;4161318;28;20049;-74
2021/12/23 00:43:36;;;;;;;0.00;0.00;;;0.20;91.10;;;;;;4161857;28;20422;-74
2021/12/23 00:46:00;;;;;;;0.00;0.00;;;0.20;91.00;;;;;;4175974;28;20048;-73
2021/12/23 00:48:23;;;;;;;0.00;0.00;;;0.10;91.10;;;;;;4161754;28;20053;-74
2021/12/23 00:50:48;;;;;;;0.00;0.00;;;-0.10;91.20;;;;;;4161564;28;20551;-73
2021/12/23 00:53:13;;;;;;;0.00;0.00;;;-0.10;91.30;;;;;;4161757;28;20129;-75
2021/12/23 00:55:35;;;;;;;0.00;0.00;;;-0.10;91.30;;;;;;4161640;28;20396;-73
2021/12/23 00:57:59;;;;;;;0.00;0.00;;;-0.20;91.50;;;;;;4161125;28;20049;-73
2021/12/23 01:00:22;;;;;;;0.00;0.00;;;-0.30;91.70;;;;;;4161719;28;20052;-74
2021/12/23 01:02:48;;;;;;;0.00;0.00;;;-0.20;91.70;;;;;;4161395;28;20049;-73
2021/12/23 01:05:12;;;;;;;0.00;0.00;;;-0.20;91.70;;;;;;4147931;28;20049;-73
2021/12/23 01:07:34;;;;;;;0.00;0.00;;;-0.30;91.70;;;;;;4161349;28;20049;-74
2021/12/23 01:09:57;;;;;;;0.00;0.00;;;-0.20;91.80;;;;;;4133754;28;20046;-73
2021/12/23 01:12:25;;;;;;;0.00;0.00;;;-0.10;91.70;;;;;;4160885;28;20049;-74
2021/12/23 01:15:09;;;;;;;0.00;0.00;;;-0.10;91.60;;;;;;4147729;28;20050;-73
2021/12/23 01:17:46;;;;;;;0.00;0.00;;;-0.20;91.70;;;;;;4161333;28;20550;-73
2021/12/23 01:20:10;;;;;;;0.00;0.00;;;-0.30;91.80;;;;;;4174169;28;20482;-73
2021/12/23 01:22:32;;;;;;;0.00;0.00;;;-0.30;91.90;;;;;;4134159;28;20435;-73
2021/12/23 01:24:55;;;;;;;0.00;0.00;;;-0.30;91.80;;;;;;4161176;28;20060;-72
2021/12/23 01:27:17;;;;;;;0.00;0.00;;;-0.30;91.90;;;;;;4147367;28;20060;-73
2021/12/23 01:29:40;;;;;;;0.00;0.00;;;-0.30;92.00;;;;;;4147383;28;20048;-73
2021/12/23 01:32:05;;;;;;;0.00;0.00;;;-0.30;91.90;;;;;;4160280;28;20513;-72
2021/12/23 01:34:28;;;;;;;0.00;0.00;;;-0.30;92.00;;;;;;4160920;28;20072;-73
2021/12/23 01:36:50;;;;;;;0.00;0.00;;;-0.30;92.00;;;;;;4160746;28;20075;-71
2021/12/23 01:39:14;;;;;;;0.00;0.00;;;-0.20;91.90;;;;;;4161025;28;20053;-72
2021/12/23 01:41:36;;;;;;;0.00;0.00;;;-0.30;91.80;;;;;;4160537;28;20045;-73
2021/12/23 01:43:58;;;;;;;0.00;0.00;;;-0.40;91.90;;;;;;4147018;28;20132;-72
2021/12/23 01:46:22;;;;;;;0.00;0.00;;;-0.30;92.00;;;;;;4160818;28;20133;-72
2021/12/23 01:48:45;;;;;;;0.00;0.00;;;-0.20;91.90;;;;;;4160750;28;20468;-74
2021/12/23 01:51:07;;;;;;;0.00;0.00;;;0.10;91.70;;;;;;4160553;28;20132;-73
2021/12/23 01:53:30;;;;;;;0.00;0.00;;;0.20;91.40;;;;;;4160069;28;20471;-72
2021/12/23 01:55:52;;;;;;;0.00;0.00;;;0.30;91.10;;;;;;4160312;28;20057;-73
2021/12/23 01:58:15;;;;;;;0.00;0.00;;;0.30;91.20;;;;;;4147207;28;20120;-72
2021/12/23 02:00:40;;;;;;;0.00;0.00;;;0.20;91.10;;;;;;4160666;28;20168;-72
2021/12/23 02:03:04;;;;;;;0.00;0.00;;;0.00;91.40;;;;;;4160641;28;20132;-71
2021/12/23 02:05:27;;;;;;;0.00;0.00;;;0.00;91.50;;;;;;4160853;28;20597;-72
2021/12/23 02:07:51;;;;;;;0.00;0.00;;;-0.10;91.60;;;;;;4176740;28;20065;-72
2021/12/23 02:10:14;;;;;;;0.00;0.00;;;0.10;91.60;;;;;;4163629;28;20059;-72
2021/12/23 02:12:37;;;;;;;0.00;0.00;;;0.20;91.40;;;;;;4176993;28;20049;-71
2021/12/23 02:15:00;;;;;;;0.00;0.00;;;0.30;91.30;;;;;;4177300;28;20072;-72
2021/12/23 02:17:22;;;;;;;0.00;0.00;;;0.40;91.20;;;;;;4177205;28;20048;-72
2021/12/23 02:19:44;;;;;;;0.00;0.00;;;0.40;91.00;;;;;;4177135;28;20061;-72
2021/12/23 02:22:07;;;;;;;0.00;0.00;;;0.40;91.00;;;;;;4176525;28;20100;-71
2021/12/23 02:24:29;;;;;;;0.00;0.00;;;0.40;91.10;;;;;;4176922;28;20578;-72
2021/12/23 02:26:51;;;;;;;0.00;0.00;;;0.40;90.80;;;;;;4176647;28;20106;-73
2021/12/23 02:29:14;;;;;;;0.00;0.00;;;0.40;90.70;;;;;;4176972;28;20076;-73
2021/12/23 02:31:37;;;;;;;0.00;0.00;;;0.10;91.00;;;;;;4176733;28;20119;-73
2021/12/23 02:34:00;;;;;;;0.00;0.00;;;-0.10;91.40;;;;;;4176586;28;20131;-72
2021/12/23 02:36:22;;;;;;;0.00;0.00;;;-0.20;91.70;;;;;;4177234;28;20343;-71
2021/12/23 02:38:44;;;;;;;0.00;0.00;;;-0.20;91.80;;;;;;4176741;28;20124;-71
2021/12/23 02:41:07;;;;;;;0.00;0.00;;;-0.20;91.70;;;;;;4176540;28;20045;-71
2021/12/23 02:43:48;;;;;;;0.00;0.00;;;-0.10;91.80;;;;;;4162714;28;20049;-71
2021/12/23 02:46:10;;;;;;;0.00;0.00;;;0.00;91.50;;;;;;4176863;28;20051;-71
2021/12/23 02:48:35;;;;;;;0.00;0.00;;;-0.10;91.50;;;;;;4176881;28;20052;-72
2021/12/23 02:50:59;;;;;;;0.00;0.00;;;-0.20;91.70;;;;;;4176663;28;20418;-73
2021/12/23 02:53:22;;;;;;;0.00;0.00;;;-0.20;91.80;;;;;;4176830;28;20507;-72
2021/12/23 02:55:44;;;;;;;0.00;0.00;;;-0.20;91.80;;;;;;4176648;28;20049;-73
2021/12/23 02:58:07;;;;;;;0.00;0.00;;;-0.10;91.80;;;;;;4190208;28;20483;-73
2021/12/23 03:00:30;;;;;;;0.00;0.00;;;-0.20;91.80;;;;;;4176614;28;20438;-73
2021/12/23 03:02:53;;;;;;;0.00;0.00;;;-0.10;91.80;;;;;;4176974;28;20063;-73
2021/12/23 03:05:15;;;;;;;0.00;0.00;;;-0.10;91.80;;;;;;4179752;28;20183;-72
2021/12/23 03:07:38;;;;;;;0.00;0.00;;;-0.10;91.80;;;;;;4179651;28;20140;-73
2021/12/23 03:10:01;;;;;;;0.00;0.00;;;0.00;91.70;;;;;;4179109;28;20075;-73
2021/12/23 03:12:23;;;;;;;0.00;0.00;;;0.00;91.60;;;;;;4179643;28;20056;-74
2021/12/23 03:14:46;;;;;;;0.00;0.00;;;0.00;91.70;;;;;;4179567;28;20075;-73
2021/12/23 03:17:08;;;;;;;0.00;0.00;;;0.10;91.80;;;;;;4179595;28;20072;-73
2021/12/23 03:19:31;;;;;;;0.00;0.00;;;0.10;91.60;;;;;;4179460;28;20064;-73
2021/12/23 03:21:53;;;;;;;0.00;0.00;;;0.20;91.70;;;;;;4178888;28;20053;-73
2021/12/23 03:24:16;;;;;;;0.00;0.00;;;0.30;91.60;;;;;;4179331;28;20419;-73
2021/12/23 03:26:38;;;;;;;0.00;0.00;;;0.20;91.70;;;;;;4179556;28;20088;-73
2021/12/23 03:29:01;;;;;;;0.00;0.00;;;0.20;91.50;;;;;;4179279;28;20045;-72
2021/12/23 03:31:23;;;;;;;0.00;0.00;;;0.30;91.40;;;;;;4179088;28;20045;-73
2021/12/23 03:33:45;;;;;;;0.00;0.00;;;0.30;91.30;;;;;;4179188;28;20045;-73
2021/12/23 03:36:08;;;;;;;0.00;0.00;;;0.20;91.30;;;;;;4192767;28;20032;-73
2021/12/23 03:38:31;;;;;;;0.00;0.00;;;0.10;91.50;;;;;;4179046;28;20540;-73
2021/12/23 03:40:54;;;;;;;0.00;0.00;;;0.10;91.70;;;;;;4178834;28;20571;-73
2021/12/23 03:43:18;;;;;;;0.00;0.00;;;0.10;91.60;;;;;;4179186;28;20144;-73
2021/12/23 03:45:42;;;;;;;0.00;0.00;;;0.00;91.60;;;;;;4165240;28;20053;-73
2021/12/23 03:48:05;;;;;;;0.00;0.00;;;0.00;91.80;;;;;;4175982;28;20079;-72
2021/12/23 03:50:27;;;;;;;0.00;0.00;;;0.00;91.60;;;;;;4162572;28;20055;-73
2021/12/23 03:52:50;;;;;;;0.00;0.00;;;0.00;91.70;;;;;;4162515;28;20120;-72
2021/12/23 03:55:14;;;;;;;0.00;0.00;;;0.20;91.70;;;;;;4162273;28;20045;-73
2021/12/23 03:57:36;;;;;;;0.00;0.00;;;0.30;91.50;;;;;;4162472;28;20041;-72
2021/12/23 03:59:59;;;;;;;0.00;0.00;;;0.30;91.40;;;;;;4178240;28;20144;-72
2021/12/23 04:02:24;;;;;;;0.00;0.00;;;0.40;91.40;;;;;;4178608;28;20041;-73
2021/12/23 04:04:46;;;;;;;0.00;0.00;;;0.50;91.20;;;;;;4165068;28;20056;-72
2021/12/23 04:07:09;;;;;;;0.00;0.00;;;0.50;91.00;;;;;;4164820;28;20054;-72
2021/12/23 04:09:31;;;;;;;0.00;0.00;;;0.50;91.00;;;;;;4150366;28;20144;-72
2021/12/23 04:11:54;;;;;;;0.00;0.00;;;0.60;90.90;;;;;;4161550;28;20053;-72
2021/12/23 04:14:16;;;;;;;0.00;0.00;;;0.50;90.90;;;;;;4148313;28;20046;-72
2021/12/23 04:16:39;;;;;;;0.00;0.00;;;0.40;91.10;;;;;;4161835;28;20096;-71
2021/12/23 04:19:06;;;;;;;0.00;0.00;;;0.60;91.00;;;;;;4162168;28;20481;-72
2021/12/23 04:21:29;;;;;;;0.00;0.00;;;0.60;90.80;;;;;;4147959;28;20060;-72
2021/12/23 04:23:53;;;;;;;0.00;0.00;;;0.80;90.70;;;;;;4190772;28;20056;-72
2021/12/23 04:26:16;;;;;;;0.00;0.00;;;0.80;90.50;;;;;;4148257;28;20053;-72
2021/12/23 04:28:45;;;;;;;0.00;0.00;;;0.90;90.60;;;;;;4162002;28;20053;-72
2021/12/23 04:31:08;;;;;;;0.00;0.00;;;0.90;90.20;;;;;;4161532;28;20427;-72
2021/12/23 04:33:30;;;;;;;0.00;0.00;;;0.80;90.40;;;;;;4161804;28;20050;-71
2021/12/23 04:35:53;;;;;;;0.00;0.00;;;0.60;90.40;;;;;;4147580;28;20089;-72
2021/12/23 04:38:15;;;;;;;0.00;0.00;;;0.50;90.60;;;;;;4161661;28;20148;-72
2021/12/23 04:40:37;;;;;;;0.00;0.00;;;0.40;90.80;;;;;;4175280;28;20044;-72
2021/12/23 04:43:03;;;;;;;0.00;0.00;;;0.50;90.90;;;;;;4161842;28;20136;-71
2021/12/23 04:45:25;;;;;;;0.00;0.00;;;0.60;90.60;;;;;;4138558;28;20065;-72
2021/12/23 04:47:48;;;;;;;0.00;0.00;;;0.60;90.70;;;;;;4161240;28;20124;-73
2021/12/23 04:50:14;;;;;;;0.00;0.00;;;0.40;90.80;;;;;;4161692;28;20438;-72
2021/12/23 04:52:38;;;;;;;0.00;0.00;;;0.10;91.20;;;;;;4161596;28;20053;-72
2021/12/23 04:55:00;;;;;;;0.00;0.00;;;0.00;91.60;;;;;;4161534;28;20045;-72
2021/12/23 04:57:23;;;;;;;0.00;0.00;;;0.20;91.50;;;;;;4161769;28;20053;-72
2021/12/23 04:59:45;;;;;;;0.00;0.00;;;0.20;91.30;;;;;;4161525;28;20045;-72
2021/12/23 05:02:08;;;;;;;0.00;0.00;;;0.10;91.40;;;;;;4147247;28;20106;-72
2021/12/23 05:04:30;;;;;;;0.00;0.00;;;0.00;91.60;;;;;;4167867;28;20059;-73
2021/12/23 05:06:52;;;;;;;0.00;0.00;;;0.00;91.80;;;;;;4178134;28;20550;-73
2021/12/23 05:09:15;;;;;;;0.00;0.00;;;0.00;91.80;;;;;;4177839;28;20049;-73
2021/12/23 05:11:37;;;;;;;0.00;0.00;;;0.00;91.70;;;;;;4177549;28;20418;-73
2021/12/23 05:13:59;;;;;;;0.00;0.00;;;-0.10;91.90;;;;;;4191460;28;20088;-73
2021/12/23 05:16:22;;;;;;;0.00;0.00;;;-0.20;92.00;;;;;;4178008;28;20131;-73
2021/12/23 05:18:44;;;;;;;0.00;0.00;;;-0.20;92.20;;;;;;4192051;28;20049;-72
2021/12/23 05:21:08;;;;;;;0.00;0.00;;;-0.20;92.30;;;;;;4177561;28;20067;-73
2021/12/23 05:23:30;;;;;;;0.00;0.00;;;-0.30;92.30;;;;;;4177764;28;20053;-73
2021/12/23 05:25:52;;;;;;;0.00;0.00;;;-0.30;92.40;;;;;;4177319;28;20503;-73
2021/12/23 05:28:14;;;;;;;0.00;0.00;;;-0.30;92.40;;;;;;4177293;28;20037;-73
2021/12/23 05:30:37;;;;;;;0.00;0.00;;;-0.40;92.40;;;;;;4163759;28;20052;-72
2021/12/23 05:33:00;;;;;;;0.00;0.00;;;-0.40;92.40;;;;;;4177722;28;20049;-73
2021/12/23 05:35:23;;;;;;;0.00;0.00;;;-0.50;92.40;;;;;;4177472;28;20075;-73
2021/12/23 05:37:46;;;;;;;0.00;0.00;;;-0.60;92.60;;;;;;4163660;28;20053;-73
2021/12/23 05:40:10;;;;;;;0.00;0.00;;;-0.60;92.70;;;;;;4177307;28;20037;-73
2021/12/23 05:42:33;;;;;;;0.00;0.00;;;-0.60;92.80;;;;;;4163977;28;20124;-71
2021/12/23 05:44:55;;;;;;;0.00;0.00;;;-0.60;92.80;;;;;;4177602;28;20073;-73
2021/12/23 05:47:17;;;;;;;0.00;0.00;;;-0.60;92.90;;;;;;4163836;28;20056;-73
2021/12/23 05:49:40;;;;;;;0.00;0.00;;;-0.70;93.00;;;;;;4177524;28;20045;-73
2021/12/23 05:52:02;;;;;;;0.00;0.00;;;-0.70;93.10;;;;;;4176929;28;20053;-73
2021/12/23 05:54:25;;;;;;;0.00;0.00;;;-0.80;93.30;;;;;;4177592;28;20662;-73
2021/12/23 05:56:47;;;;;;;0.00;0.00;;;-0.80;93.50;;;;;;4177423;28;20044;-73
2021/12/23 05:59:10;;;;;;;0.00;0.00;;;-0.80;93.50;;;;;;4163412;28;20084;-73
2021/12/23 06:01:33;;;;;;;0.00;0.00;;;-0.80;93.50;;;;;;4191003;28;20131;-74
2021/12/23 06:03:56;;;;;;;0.00;0.00;;;-0.80;93.50;;;;;;4163221;28;20056;-73
2021/12/23 06:06:18;;;;;;;0.00;0.00;;;-1.00;93.60;;;;;;4177426;28;20383;-74
2021/12/23 06:08:41;;;;;;;0.00;0.00;;;-1.00;93.70;;;;;;4177146;28;20045;-73
2021/12/23 06:11:03;;;;;;;0.00;0.00;;;-1.00;93.70;;;;;;4177096;28;20536;-73
2021/12/23 06:13:26;;;;;;;0.00;0.00;;;-1.10;94.20;;;;;;4177185;28;20526;-75
2021/12/23 06:15:48;;;;;;;0.00;0.00;;;-1.30;94.20;;;;;;4176773;28;20049;-73
2021/12/23 06:18:11;;;;;;;0.00;0.00;;;-1.40;94.50;;;;;;4163363;28;20417;-74
2021/12/23 06:20:35;;;;;;;0.00;0.00;;;-1.50;94.60;;;;;;4176986;28;20041;-72
2021/12/23 06:22:57;;;;;;;0.00;0.00;;;-1.40;94.70;;;;;;4177099;28;20118;-73
2021/12/23 06:25:20;;;;;;;0.00;0.00;;;-1.40;94.60;;;;;;4177160;28;20103;-73
2021/12/23 06:27:43;;;;;;;0.00;0.00;;;-1.40;94.60;;;;;;4176849;28;20103;-71
2021/12/23 06:30:18;;;;;;;0.00;0.00;;;-1.40;94.60;;;;;;4176836;28;20080;-73
2021/12/23 06:32:41;;;;;;;0.00;0.00;;;-1.40;94.50;;;;;;4177122;28;20931;-72
2021/12/23 06:35:03;;;;;;;0.00;0.00;;;-1.40;94.60;;;;;;4163362;28;20065;-72
2021/12/23 06:37:26;;;;;;;0.00;0.00;;;-1.40;94.60;;;;;;4176545;28;20534;-72
2021/12/23 06:39:48;;;;;;;0.00;0.00;;;-1.40;94.70;;;;;;4179613;28;20449;-74
2021/12/23 06:42:11;;;;;;;0.00;0.00;;;-1.50;94.90;;;;;;4180007;28;20583;-72
2021/12/23 06:44:33;;;;;;;0.00;0.00;;;-1.30;95.00;;;;;;4180252;28;20072;-71
2021/12/23 06:46:56;;;;;;;0.00;0.00;;;-1.30;94.70;;;;;;4194038;28;20535;-71
2021/12/23 06:49:20;;;;;;;0.00;0.00;;;-1.40;94.90;;;;;;4180160;28;20103;-73
2021/12/23 06:51:44;;;;;;;0.00;0.00;;;-1.50;95.00;;;;;;4180129;28;20220;-74
2021/12/23 06:54:09;;;;;;;0.00;0.00;;;-1.50;95.10;;;;;;4165693;28;20041;-74
2021/12/23 06:56:31;;;;;;;0.00;0.00;;;-1.50;95.10;;;;;;4166288;28;20060;-72
2021/12/23 06:58:53;;;;;;;0.00;0.00;;;-1.40;95.10;;;;;;4180140;28;20556;-74
2021/12/23 07:01:20;;;;;;;0.00;0.00;;;-1.30;95.00;;;;;;4179477;28;20103;-74
2021/12/23 07:04:31;;;;;;;0.00;0.00;;;-1.30;94.80;;;;;;4179836;28;20048;-72
2021/12/23 07:06:31;;;;;;;0.00;0.00;;;-1.40;94.90;;;;;;4193188;28;20470;-74
2021/12/23 07:08:55;;;;;;;0.00;0.00;;;-1.50;95.00;;;;;;4179602;28;20056;-73
2021/12/23 07:11:17;;;;;;;0.00;0.00;;;-1.50;95.20;;;;;;4165763;28;20461;-74
2021/12/23 07:13:39;;;;;;;0.00;0.00;;;-1.50;95.20;;;;;;4179738;28;20041;-75
2021/12/23 07:16:02;;;;;;;0.00;0.00;;;-1.50;95.20;;;;;;4165693;28;20110;-71
2021/12/23 07:18:24;;;;;;;0.00;0.00;;;-1.60;95.30;;;;;;4179566;28;20084;-73
2021/12/23 07:20:47;;;;;;;0.00;0.00;;;-1.60;95.40;;;;;;4193361;28;20123;-76
2021/12/23 07:23:11;;;;;;;0.00;0.00;;;-1.50;95.40;;;;;;4179512;28;20091;-73
2021/12/23 07:25:35;;;;;;;0.00;0.00;;;-1.50;95.50;;;;;;4179686;28;20049;-74
2021/12/23 07:27:59;;;;;;;0.00;0.00;;;-1.40;95.40;;;;;;4179122;28;20048;-74
2021/12/23 07:30:22;;;;;;;0.00;0.00;;;-1.40;95.20;;;;;;4165736;28;20119;-74
2021/12/23 07:32:47;;;;;;;0.00;0.00;;;-1.40;95.40;;;;;;4165728;28;20044;-71
2021/12/23 07:35:10;;;;;;;0.00;0.00;;;-1.40;95.40;;;;;;4179420;28;20049;-73
2021/12/23 07:37:37;;;;;;;0.00;0.00;;;-1.20;95.50;;;;;;4179059;28;20111;-70
2021/12/23 07:40:00;;;;;;;0.00;0.00;;;-1.10;95.30;;;;;;4148999;28;20042;-70
2021/12/23 07:42:26;;;;;;;0.00;0.00;;;-1.10;94.90;;;;;;4162752;28;20601;-74
2021/12/23 07:44:49;;;;;;;0.00;0.00;;;-1.20;94.90;;;;;;4149061;28;20046;-73
2021/12/23 07:47:13;;;;;;;0.00;0.00;;;-1.00;95.10;;;;;;4149049;28;20066;-70
2021/12/23 07:49:36;;;;;;;0.00;0.00;;;-0.80;94.90;;;;;;4162276;28;20060;-69
2021/12/23 07:51:58;;;;;;;0.00;0.00;;;-0.60;94.60;;;;;;4162007;28;20566;-69
2021/12/23 07:54:21;;;;;;;0.00;0.00;;;-0.40;94.20;;;;;;4162630;28;20099;-73
2021/12/23 07:56:43;;;;;;;0.00;0.00;;;-0.40;93.70;;;;;;4162617;28;20053;-70
2021/12/23 07:59:06;;;;;;;0.00;0.00;;;-0.30;93.60;;;;;;4148694;28;20160;-72
2021/12/23 08:01:28;;;;;;;0.00;0.00;;;-0.20;93.40;;;;;;4162368;28;20049;-71
2021/12/23 08:03:51;;;;;;;0.00;0.00;;;0.00;93.00;;;;;;4162173;28;20041;-75
2021/12/23 08:06:14;;;;;;;0.00;0.00;;;0.00;92.70;;;;;;4162587;28;20128;-74
2021/12/23 08:08:37;;;;;;;0.00;0.00;;;0.30;92.60;;;;;;4162300;28;20101;-73
2021/12/23 08:10:59;;;;;;;0.00;0.00;;;0.60;92.30;;;;;;4162370;28;20120;-73
2021/12/23 08:13:22;;;;;;;0.00;0.00;;;0.70;91.70;;;;;;4162364;28;20064;-74
2021/12/23 08:15:44;;;;;;;0.00;0.00;;;0.70;91.60;;;;;;4162322;28;20049;-73
2021/12/23 08:18:06;;;;;;;0.00;0.00;;;0.60;91.60;;;;;;4161829;28;20061;-71
2021/12/23 08:20:29;;;;;;;0.00;0.00;;;0.60;91.70;;;;;;4148874;28;20140;-72
2021/12/23 08:22:51;;;;;;;0.00;0.00;;;0.40;91.70;;;;;;4162005;28;20073;-77
2021/12/23 08:25:14;;;;;;;0.00;0.00;;;0.50;91.90;;;;;;4162116;28;20046;-66
2021/12/23 08:27:38;;;;;;;0.00;0.00;;;0.60;91.80;;;;;;4148386;28;20078;-63
2021/12/23 08:30:02;;;;;;;0.00;0.00;;;0.80;91.40;;;;;;4192169;28;20061;-63
2021/12/23 08:32:25;;;;;;;0.00;0.00;;;0.90;91.00;;;;;;4173467;28;20045;-65
2021/12/23 08:34:47;;;;;;;0.00;0.00;;;1.00;91.00;;;;;;4178134;28;20052;-63
2021/12/23 08:37:11;;;;;;;0.00;0.00;;;1.30;91.00;;;;;;4164308;28;20088;-65
2021/12/23 08:39:34;;;;;;;0.00;0.00;;;1.70;90.70;;;;;;4192115;28;20066;-64
2021/12/23 08:41:56;;;;;;;0.00;0.00;;;2.00;90.00;;;;;;4175058;28;20045;-63
2021/12/23 08:44:19;;;;;;;0.00;0.00;;;2.50;89.10;;;;;;4161604;28;20139;-62
2021/12/23 08:46:41;;;;;;;0.00;0.00;;;2.90;87.90;;;;;;4161775;28;20128;-62
2021/12/23 08:49:05;;;;;;;0.00;0.00;;;3.10;86.50;;;;;;4161473;28;20118;-62
2021/12/23 08:51:28;;;;;;;0.00;0.00;;;3.20;85.60;;;;;;4161428;28;20057;-63
2021/12/23 08:53:50;;;;;;;0.00;0.00;;;3.20;84.10;;;;;;4161043;28;20050;-62
2021/12/23 08:56:13;;;;;;;0.00;0.00;;;3.30;83.90;;;;;;4161239;28;20549;-63
2021/12/23 08:58:37;;;;;;;0.00;0.00;;;3.30;82.90;;;;;;4154796;28;20515;-62
2021/12/23 09:00:59;;;;;;;0.00;0.00;;;3.60;82.70;;;;;;4177735;28;20041;-64
2021/12/23 09:03:22;;;;;;;0.00;0.00;;;4.00;82.00;;;;;;4164275;28;20059;-67
2021/12/23 09:05:45;;;;;;;0.00;0.00;;;4.10;79.60;;;;;;4177912;28;20136;-67
2021/12/23 09:08:09;;;;;;;0.00;0.00;;;4.30;79.50;;;;;;4161207;28;20050;-66
2021/12/23 09:10:33;;;;;;;0.00;0.00;;;4.60;79.20;;;;;;4175239;28;20056;-62
2021/12/23 09:12:55;;;;;;;0.00;0.00;;;4.60;77.70;;;;;;4161566;28;20384;-63
2021/12/23 09:15:19;;;;;;;0.00;0.00;;;4.30;78.20;;;;;;4161102;28;20092;-62
2021/12/23 09:17:42;;;;;;;0.00;0.00;;;4.10;79.00;;;;;;4161698;28;20081;-71
2021/12/23 09:20:08;;;;;;;0.00;0.00;;;4.30;79.40;;;;;;4174800;28;20521;-71
2021/12/23 09:22:30;;;;;;;0.00;0.00;;;4.30;79.10;;;;;;4161377;28;20046;-63
2021/12/23 09:24:57;;;;;;;0.00;0.00;;;4.30;78.20;;;;;;4161122;28;20136;-67
2021/12/23 09:34:49;;;;;;;0.00;0.00;;;6.00;75.80;;;;;;4165967;28;20132;-68
2021/12/23 09:37:11;;;;;;;0.00;0.00;;;6.40;75.20;;;;;;4177294;28;20127;-73
2021/12/23 09:39:33;;;;;;;0.00;0.00;;;6.40;74.40;;;;;;4177448;28;20411;-66
2021/12/23 09:41:57;;;;;;;0.00;0.00;;;6.60;74.30;;;;;;4176941;28;20077;-65
2021/12/23 09:44:19;;;;;;;0.00;0.00;;;6.80;73.70;;;;;;4144680;28;20069;-64
2021/12/23 09:46:43;;;;;;;0.00;0.00;;;7.00;72.80;;;;;;4144707;28;20077;-67
2021/12/23 09:49:06;;;;;;;0.00;0.00;;;7.00;71.60;;;;;;4144560;28;20128;-64
2021/12/23 09:51:32;;;;;;;0.00;0.00;;;7.00;71.60;;;;;;4130796;28;20058;-63
2021/12/23 09:53:57;;;;;;;0.00;0.00;;;7.10;71.50;;;;;;4143849;28;20228;-64
2021/12/23 09:56:20;;;;;;;0.00;0.00;;;7.30;70.50;;;;;;4143731;28;20052;-63
2021/12/23 09:58:45;;;;;;;0.00;0.00;;;7.30;69.10;;;;;;4144783;28;20050;-62
2021/12/23 10:01:08;;;;;;;0.00;0.00;;;7.00;68.40;;;;;;4144441;28;20076;-63
2021/12/23 10:03:31;;;;;;;0.00;0.00;;;7.00;70.10;;;;;;4144643;28;20411;-63
2021/12/23 10:05:55;;;;;;;0.00;0.00;;;7.10;69.10;;;;;;4143727;28;20085;-63
2021/12/23 10:08:19;;;;;;;0.00;0.00;;;6.80;68.70;;;;;;4130917;28;20057;-65
2021/12/23 10:26:55;;;;;;;0.00;0.00;;;7.30;68.50;;;;;;4158292;28;20049;-63
2021/12/23 10:38:14;;;;;;;0.00;0.00;;;8.60;64.20;;;;;;4163311;28;20041;-64
2021/12/23 10:40:41;;;;;;;0.00;0.00;;;8.80;64.30;;;;;;4177253;28;20140;-62
2021/12/23 10:43:04;;;;;;;0.00;0.00;;;8.70;64.20;;;;;;4177617;28;20490;-62
2021/12/23 10:45:47;;;;;;;0.00;0.00;;;8.80;63.80;;;;;;4177254;28;20076;-63
2021/12/23 10:48:13;;;;;;;0.00;0.00;;;8.90;63.20;;;;;;4159984;28;20057;-63
2021/12/23 10:50:42;;;;;;;0.00;0.00;;;8.90;63.00;;;;;;4146766;28;20523;-61
2021/12/23 10:53:37;;;;;;;0.00;0.00;;;9.20;61.80;;;;;;4147212;28;20165;-61
2021/12/23 10:59:23;;;;;;;0.00;0.00;;;9.20;61.20;;;;;;4128492;28;20089;-61
2021/12/23 11:02:19;;;;;;;0.00;0.00;;;9.30;61.50;;;;;;4132058;28;20054;-62
2021/12/23 11:05:22;;;;;;;0.00;0.00;;;9.40;61.00;;;;;;4131969;28;20070;-60
2021/12/23 11:07:55;;;;;;;0.00;0.00;;;9.90;59.90;;;;;;4132180;28;20053;-60
2021/12/23 11:42:01;;;;;;;0.00;0.00;;;6.20;66.10;;;;;;4146151;28;20042;-63
2021/12/23 11:43:59;;;;;;;0.00;0.00;;;5.90;66.60;;;;;;4145949;28;20046;-61
2021/12/23 11:46:28;;;;;;;0.00;0.00;;;5.80;66.90;;;;;;4160200;28;20051;-62
2021/12/23 11:48:53;;;;;;;0.00;0.00;;;5.80;67.50;;;;;;4160337;28;20443;-62
2021/12/23 11:51:20;;;;;;;0.00;0.00;;;5.90;67.30;;;;;;4146035;28;20388;-65
2021/12/23 11:53:48;;;;;;;0.00;0.00;;;5.90;67.30;;;;;;4146376;28;20053;-61
2021/12/23 11:56:13;;;;;;;0.00;0.00;;;6.00;67.50;;;;;;4145852;28;20061;-67
2021/12/23 11:58:42;;;;;;;0.00;0.00;;;6.10;67.80;;;;;;4159965;28;20049;-67
2021/12/23 12:01:08;;;;;;;0.00;0.00;;;6.10;67.80;;;;;;4146026;28;20050;-64
2021/12/23 12:03:50;;;;;;;0.00;0.00;;;6.10;67.70;;;;;;4133068;28;20050;-67
2021/12/23 12:06:14;;;;;;;0.00;0.00;;;6.00;67.10;;;;;;4145713;28;20073;-65
2021/12/23 12:08:37;;;;;;;0.00;0.00;;;6.00;66.90;;;;;;4145774;28;20054;-62
2021/12/23 12:11:21;;;;;;;0.00;0.00;;;6.00;66.80;;;;;;4145665;28;20073;-63
2021/12/23 12:13:43;;;;;;;0.00;0.00;;;6.10;65.50;;;;;;4159803;28;20037;-63
2021/12/23 12:16:28;;;;;;;0.00;0.00;;;6.10;64.60;;;;;;4145339;28;20046;-64
2021/12/23 12:18:51;;;;;;;0.00;0.00;;;6.30;65.40;;;;;;4145667;28;20141;-61
2021/12/23 12:21:23;;;;;;;0.00;0.00;;;6.50;65.00;;;;;;4145531;28;20042;-61
2021/12/23 12:23:45;;;;;;;0.00;0.00;;;6.60;65.10;;;;;;4159632;28;20057;-61
2021/12/23 12:26:34;;;;;;;0.00;0.00;;;6.80;65.30;;;;;;4161414;28;20071;-61
2021/12/23 12:28:59;;;;;;;0.00;0.00;;;6.80;65.40;;;;;;4175765;28;20045;-62
2021/12/23 12:31:23;;;;;;;0.00;0.00;;;6.70;65.80;;;;;;4147964;28;20104;-61
2021/12/23 12:34:06;;;;;;;0.00;0.00;;;6.70;65.90;;;;;;4175429;28;20048;-65
2021/12/23 12:36:29;;;;;;;0.00;0.00;;;6.50;65.70;;;;;;4175523;28;20063;-61
2021/12/23 12:39:14;;;;;;;0.00;0.00;;;6.40;66.20;;;;;;4175738;28;20488;-62
2021/12/23 12:41:40;;;;;;;0.00;0.00;;;6.40;65.80;;;;;;4161826;28;20047;-61
2021/12/23 12:44:28;;;;;;;0.00;0.00;;;6.50;65.10;;;;;;4175720;28;20049;-62
2021/12/23 12:49:37;;;;;;;0.00;0.00;;;6.60;64.10;;;;;;4145368;28;20050;-62
2021/12/23 12:52:28;;;;;;;0.00;0.00;;;6.70;63.40;;;;;;4146627;28;20546;-62
2021/12/23 12:55:18;;;;;;;0.00;0.00;;;6.30;63.40;;;;;;4161713;28;20469;-62
2021/12/23 12:57:56;;;;;;;0.00;0.00;;;6.20;64.00;;;;;;4145682;28;20045;-62
2021/12/23 13:00:21;;;;;;;0.00;0.00;;;6.10;64.70;;;;;;4144924;28;20463;-62
2021/12/23 13:03:14;;;;;;;0.00;0.00;;;6.20;64.20;;;;;;4153421;28;20254;-62
2021/12/23 13:05:40;;;;;;;0.00;0.00;;;6.30;63.00;;;;;;4146475;28;20076;-64
2021/12/23 13:08:28;;;;;;;0.00;0.00;;;6.20;62.60;;;;;;4131825;28;20570;-66
2021/12/23 13:11:08;;;;;;;0.00;0.00;;;6.20;62.30;;;;;;4144307;28;20052;-64
2021/12/23 13:14:05;;;;;;;0.00;0.00;;;6.40;62.40;;;;;;4138800;28;20056;-67
2021/12/23 13:16:58;;;;;;;0.00;0.00;;;6.40;63.20;;;;;;4156058;28;20442;-67
2021/12/23 13:19:23;;;;;;;0.00;0.00;;;6.50;62.70;;;;;;4164291;28;20049;-70
2021/12/23 13:21:50;;;;;;;0.00;0.00;;;6.60;62.90;;;;;;4144600;28;20065;-65
2021/12/23 13:24:18;;;;;;;0.00;0.00;;;6.50;63.00;;;;;;4130825;28;20038;-70
2021/12/23 13:26:40;;;;;;;0.00;0.00;;;6.50;63.20;;;;;;4144856;28;20052;-71
2021/12/23 13:29:05;;;;;;;0.00;0.00;;;6.50;63.50;;;;;;4176948;28;20043;-68
2021/12/23 13:31:31;;;;;;;0.00;0.00;;;6.80;63.60;;;;;;4177703;28;20115;-64
2021/12/23 13:34:19;;;;;;;0.00;0.00;;;6.80;62.90;;;;;;4177014;28;20049;-70
2021/12/23 13:36:55;;;;;;;0.00;0.00;;;6.90;63.10;;;;;;4177581;28;20103;-64
2021/12/23 13:39:26;;;;;;;0.00;0.00;;;7.00;62.70;;;;;;4177305;28;20716;-69
2021/12/23 13:42:11;;;;;;;0.00;0.00;;;7.00;62.50;;;;;;4163278;28;20051;-70
2021/12/23 13:44:36;;;;;;;0.00;0.00;;;7.00;62.40;;;;;;4177411;28;20564;-68
2021/12/23 13:46:58;;;;;;;0.00;0.00;;;7.10;62.40;;;;;;4158149;28;20061;-70
2021/12/23 13:49:31;;;;;;;0.00;0.00;;;7.30;62.30;;;;;;4157392;28;20111;-67
2021/12/23 13:51:53;;;;;;;0.00;0.00;;;7.30;62.20;;;;;;4146680;28;20156;-71
2021/12/23 13:54:17;;;;;;;0.00;0.00;;;7.40;62.30;;;;;;4168498;28;20116;-67
2021/12/23 13:56:49;;;;;;;0.00;0.00;;;7.50;62.40;;;;;;4163524;28;20052;-71
2021/12/23 13:59:21;;;;;;;0.00;0.00;;;7.40;62.60;;;;;;4176786;28;20052;-67